sensor_id;sensor_type;location;lat;lon;timestamp;P1;durP1;ratioP1;P2;durP2;ratioP2
72235;SDS011;60146;52.498;13.462;2023-12-28T00:00:25;7.70;;;2.63;;
72235;SDS011;60146;52.498;13.462;2023-12-28T00:02:51;5.93;;;2.27;;
72235;SDS011;60146;52.498;13.462;2023-12-28T00:05:16;9.73;;;2.70;;
72235;SDS011;60146;52.498;13.462;2023-12-28T00:07:41;5.97;;;2.43;;
72235;SDS011;60146;52.498;13.462;2023-12-28T00:10:07;9.63;;;2.90;;
72235;SDS011;60146;52.498;13.462;2023-12-28T00:12:32;7.90;;;2.67;;
72235;SDS011;60146;52.498;13.462;2023-12-28T00:14:58;6.50;;;2.80;;
72235;SDS011;60146;52.498;13.462;2023-12-28T00:17:23;6.30;;;2.70;;
72235;SDS011;60146;52.498;13.462;2023-12-28T00:19:48;5.53;;;2.40;;
72235;SDS011;60146;52.498;13.462;2023-12-28T00:22:14;7.00;;;2.77;;
72235;SDS011;60146;52.498;13.462;2023-12-28T00:24:39;5.30;;;2.43;;
72235;SDS011;60146;52.498;13.462;2023-12-28T00:27:04;7.37;;;3.00;;
72235;SDS011;60146;52.498;13.462;2023-12-28T00:29:30;6.10;;;2.50;;
72235;SDS011;60146;52.498;13.462;2023-12-28T00:31:55;5.73;;;2.47;;
72235;SDS011;60146;52.498;13.462;2023-12-28T00:34:20;7.80;;;2.77;;
72235;SDS011;60146;52.498;13.462;2023-12-28T00:36:46;8.77;;;3.13;;
72235;SDS011;60146;52.498;13.462;2023-12-28T00:39:11;5.10;;;2.70;;
72235;SDS011;60146;52.498;13.462;2023-12-28T00:41:37;5.13;;;2.40;;
72235;SDS011;60146;52.498;13.462;2023-12-28T00:44:02;7.30;;;2.50;;
72235;SDS011;60146;52.498;13.462;2023-12-28T00:46:27;9.30;;;2.67;;
72235;SDS011;60146;52.498;13.462;2023-12-28T00:48:53;7.63;;;2.60;;
72235;SDS011;60146;52.498;13.462;2023-12-28T00:51:19;10.77;;;2.60;;
72235;SDS011;60146;52.498;13.462;2023-12-28T00:53:45;7.00;;;2.83;;
72235;SDS011;60146;52.498;13.462;2023-12-28T00:56:10;6.63;;;2.80;;
72235;SDS011;60146;52.498;13.462;2023-12-28T00:58:38;9.23;;;2.77;;
72235;SDS011;60146;52.498;13.462;2023-12-28T01:01:04;5.97;;;2.73;;
72235;SDS011;60146;52.498;13.462;2023-12-28T01:03:29;8.53;;;2.70;;
72235;SDS011;60146;52.498;13.462;2023-12-28T01:05:55;9.30;;;2.80;;
72235;SDS011;60146;52.498;13.462;2023-12-28T01:08:20;8.07;;;2.90;;
72235;SDS011;60146;52.498;13.462;2023-12-28T01:10:45;6.13;;;2.70;;
72235;SDS011;60146;52.498;13.462;2023-12-28T01:13:11;6.50;;;2.70;;
72235;SDS011;60146;52.498;13.462;2023-12-28T01:15:36;5.63;;;2.43;;
72235;SDS011;60146;52.498;13.462;2023-12-28T01:18:01;6.60;;;2.30;;
72235;SDS011;60146;52.498;13.462;2023-12-28T01:20:27;6.70;;;2.43;;
72235;SDS011;60146;52.498;13.462;2023-12-28T01:22:52;5.47;;;2.40;;
72235;SDS011;60146;52.498;13.462;2023-12-28T01:25:17;6.77;;;2.00;;
72235;SDS011;60146;52.498;13.462;2023-12-28T01:27:43;5.60;;;2.10;;
72235;SDS011;60146;52.498;13.462;2023-12-28T01:30:08;8.63;;;2.40;;
72235;SDS011;60146;52.498;13.462;2023-12-28T01:32:34;5.73;;;2.37;;
72235;SDS011;60146;52.498;13.462;2023-12-28T01:34:59;6.80;;;2.77;;
72235;SDS011;60146;52.498;13.462;2023-12-28T01:37:24;4.23;;;2.20;;
72235;SDS011;60146;52.498;13.462;2023-12-28T01:39:50;7.33;;;2.17;;
72235;SDS011;60146;52.498;13.462;2023-12-28T01:42:15;5.10;;;2.47;;
72235;SDS011;60146;52.498;13.462;2023-12-28T01:44:40;5.60;;;2.30;;
72235;SDS011;60146;52.498;13.462;2023-12-28T01:47:06;3.03;;;1.73;;
72235;SDS011;60146;52.498;13.462;2023-12-28T01:49:32;6.33;;;2.10;;
72235;SDS011;60146;52.498;13.462;2023-12-28T01:51:59;6.03;;;2.40;;
72235;SDS011;60146;52.498;13.462;2023-12-28T01:54:25;4.97;;;1.80;;
72235;SDS011;60146;52.498;13.462;2023-12-28T01:56:51;5.03;;;2.30;;
72235;SDS011;60146;52.498;13.462;2023-12-28T01:59:17;4.87;;;1.97;;
72235;SDS011;60146;52.498;13.462;2023-12-28T02:01:43;5.97;;;2.20;;
72235;SDS011;60146;52.498;13.462;2023-12-28T02:04:10;6.47;;;2.00;;
72235;SDS011;60146;52.498;13.462;2023-12-28T02:06:35;3.17;;;1.93;;
72235;SDS011;60146;52.498;13.462;2023-12-28T02:09:01;3.97;;;1.80;;
72235;SDS011;60146;52.498;13.462;2023-12-28T02:11:26;6.00;;;2.00;;
72235;SDS011;60146;52.498;13.462;2023-12-28T02:13:51;4.63;;;1.90;;
72235;SDS011;60146;52.498;13.462;2023-12-28T02:16:20;5.63;;;2.20;;
72235;SDS011;60146;52.498;13.462;2023-12-28T02:18:50;3.20;;;1.60;;
72235;SDS011;60146;52.498;13.462;2023-12-28T02:21:19;3.77;;;1.73;;
72235;SDS011;60146;52.498;13.462;2023-12-28T02:23:48;4.87;;;1.90;;
72235;SDS011;60146;52.498;13.462;2023-12-28T02:26:17;4.37;;;1.93;;
72235;SDS011;60146;52.498;13.462;2023-12-28T02:28:43;2.50;;;1.50;;
72235;SDS011;60146;52.498;13.462;2023-12-28T02:31:12;3.73;;;1.40;;
72235;SDS011;60146;52.498;13.462;2023-12-28T02:33:54;2.93;;;1.50;;
72235;SDS011;60146;52.498;13.462;2023-12-28T02:36:24;3.27;;;1.23;;
72235;SDS011;60146;52.498;13.462;2023-12-28T02:38:52;2.60;;;1.30;;
72235;SDS011;60146;52.498;13.462;2023-12-28T02:41:20;2.70;;;1.10;;
72235;SDS011;60146;52.498;13.462;2023-12-28T02:43:47;2.93;;;1.40;;
72235;SDS011;60146;52.498;13.462;2023-12-28T02:46:13;1.97;;;1.20;;
72235;SDS011;60146;52.498;13.462;2023-12-28T02:48:38;2.47;;;1.30;;
72235;SDS011;60146;52.498;13.462;2023-12-28T02:51:03;2.13;;;1.40;;
72235;SDS011;60146;52.498;13.462;2023-12-28T02:53:29;2.37;;;1.30;;
72235;SDS011;60146;52.498;13.462;2023-12-28T02:55:54;2.77;;;1.10;;
72235;SDS011;60146;52.498;13.462;2023-12-28T02:58:20;2.70;;;1.27;;
72235;SDS011;60146;52.498;13.462;2023-12-28T03:00:45;2.83;;;1.20;;
72235;SDS011;60146;52.498;13.462;2023-12-28T03:03:10;1.83;;;1.03;;
72235;SDS011;60146;52.498;13.462;2023-12-28T03:05:35;2.13;;;1.40;;
72235;SDS011;60146;52.498;13.462;2023-12-28T03:08:01;2.77;;;0.90;;
72235;SDS011;60146;52.498;13.462;2023-12-28T03:10:26;1.83;;;1.00;;
72235;SDS011;60146;52.498;13.462;2023-12-28T03:12:51;2.70;;;1.20;;
72235;SDS011;60146;52.498;13.462;2023-12-28T03:15:17;3.53;;;1.00;;
72235;SDS011;60146;52.498;13.462;2023-12-28T03:17:42;2.03;;;1.10;;
72235;SDS011;60146;52.498;13.462;2023-12-28T03:20:08;1.77;;;0.83;;
72235;SDS011;60146;52.498;13.462;2023-12-28T03:22:34;1.40;;;0.80;;
72235;SDS011;60146;52.498;13.462;2023-12-28T03:25:00;2.27;;;1.20;;
72235;SDS011;60146;52.498;13.462;2023-12-28T03:27:25;1.53;;;1.00;;
72235;SDS011;60146;52.498;13.462;2023-12-28T03:29:50;4.23;;;1.07;;
72235;SDS011;60146;52.498;13.462;2023-12-28T03:32:16;1.97;;;1.17;;
72235;SDS011;60146;52.498;13.462;2023-12-28T03:34:41;1.70;;;1.20;;
72235;SDS011;60146;52.498;13.462;2023-12-28T03:37:06;2.43;;;1.07;;
72235;SDS011;60146;52.498;13.462;2023-12-28T03:39:32;1.70;;;0.93;;
72235;SDS011;60146;52.498;13.462;2023-12-28T03:41:58;2.70;;;1.20;;
72235;SDS011;60146;52.498;13.462;2023-12-28T03:44:23;2.70;;;1.17;;
72235;SDS011;60146;52.498;13.462;2023-12-28T03:46:49;1.43;;;1.00;;
72235;SDS011;60146;52.498;13.462;2023-12-28T03:49:18;3.23;;;1.20;;
72235;SDS011;60146;52.498;13.462;2023-12-28T03:51:44;2.00;;;1.10;;
72235;SDS011;60146;52.498;13.462;2023-12-28T03:54:10;2.13;;;1.00;;
72235;SDS011;60146;52.498;13.462;2023-12-28T03:56:35;2.23;;;1.13;;
72235;SDS011;60146;52.498;13.462;2023-12-28T03:59:04;2.77;;;1.00;;
72235;SDS011;60146;52.498;13.462;2023-12-28T04:01:30;1.70;;;0.90;;
72235;SDS011;60146;52.498;13.462;2023-12-28T04:03:55;2.20;;;1.10;;
72235;SDS011;60146;52.498;13.462;2023-12-28T04:06:20;3.13;;;1.00;;
72235;SDS011;60146;52.498;13.462;2023-12-28T04:08:46;1.57;;;1.10;;
72235;SDS011;60146;52.498;13.462;2023-12-28T04:11:11;2.93;;;0.93;;
72235;SDS011;60146;52.498;13.462;2023-12-28T04:13:37;3.43;;;1.20;;
72235;SDS011;60146;52.498;13.462;2023-12-28T04:16:02;1.67;;;1.10;;
72235;SDS011;60146;52.498;13.462;2023-12-28T04:18:28;1.83;;;1.00;;
72235;SDS011;60146;52.498;13.462;2023-12-28T04:20:53;1.47;;;1.00;;
72235;SDS011;60146;52.498;13.462;2023-12-28T04:23:19;1.83;;;1.10;;
72235;SDS011;60146;52.498;13.462;2023-12-28T04:25:44;3.27;;;1.20;;
72235;SDS011;60146;52.498;13.462;2023-12-28T04:28:09;4.23;;;1.30;;
72235;SDS011;60146;52.498;13.462;2023-12-28T04:30:35;3.50;;;1.00;;
72235;SDS011;60146;52.498;13.462;2023-12-28T04:33:01;4.57;;;1.30;;
72235;SDS011;60146;52.498;13.462;2023-12-28T04:35:26;2.30;;;1.10;;
72235;SDS011;60146;52.498;13.462;2023-12-28T04:37:52;2.23;;;1.10;;
72235;SDS011;60146;52.498;13.462;2023-12-28T04:40:17;1.73;;;0.90;;
72235;SDS011;60146;52.498;13.462;2023-12-28T04:42:43;1.03;;;0.80;;
72235;SDS011;60146;52.498;13.462;2023-12-28T04:45:09;3.50;;;1.20;;
72235;SDS011;60146;52.498;13.462;2023-12-28T04:47:35;1.53;;;1.07;;
72235;SDS011;60146;52.498;13.462;2023-12-28T04:50:01;2.90;;;1.10;;
72235;SDS011;60146;52.498;13.462;2023-12-28T04:52:27;1.03;;;0.83;;
72235;SDS011;60146;52.498;13.462;2023-12-28T04:54:52;2.30;;;1.10;;
72235;SDS011;60146;52.498;13.462;2023-12-28T04:57:17;5.37;;;1.00;;
72235;SDS011;60146;52.498;13.462;2023-12-28T04:59:42;2.63;;;1.03;;
72235;SDS011;60146;52.498;13.462;2023-12-28T05:02:08;1.80;;;1.10;;
72235;SDS011;60146;52.498;13.462;2023-12-28T05:04:36;2.93;;;1.03;;
72235;SDS011;60146;52.498;13.462;2023-12-28T05:07:03;2.75;;;0.95;;
72235;SDS011;60146;52.498;13.462;2023-12-28T05:09:28;1.70;;;1.03;;
72235;SDS011;60146;52.498;13.462;2023-12-28T05:11:53;1.63;;;1.00;;
72235;SDS011;60146;52.498;13.462;2023-12-28T05:14:19;1.80;;;1.00;;
72235;SDS011;60146;52.498;13.462;2023-12-28T05:16:44;1.33;;;0.83;;
72235;SDS011;60146;52.498;13.462;2023-12-28T05:19:09;2.23;;;1.10;;
72235;SDS011;60146;52.498;13.462;2023-12-28T05:21:35;2.73;;;1.23;;
72235;SDS011;60146;52.498;13.462;2023-12-28T05:24:00;2.40;;;1.00;;
72235;SDS011;60146;52.498;13.462;2023-12-28T05:26:25;2.40;;;1.00;;
72235;SDS011;60146;52.498;13.462;2023-12-28T05:28:52;3.33;;;1.10;;
72235;SDS011;60146;52.498;13.462;2023-12-28T05:31:17;2.30;;;1.03;;
72235;SDS011;60146;52.498;13.462;2023-12-28T05:33:42;1.97;;;1.00;;
72235;SDS011;60146;52.498;13.462;2023-12-28T05:36:08;2.87;;;1.20;;
72235;SDS011;60146;52.498;13.462;2023-12-28T05:38:33;2.50;;;1.00;;
72235;SDS011;60146;52.498;13.462;2023-12-28T05:40:59;2.20;;;1.10;;
72235;SDS011;60146;52.498;13.462;2023-12-28T05:43:24;4.27;;;1.40;;
72235;SDS011;60146;52.498;13.462;2023-12-28T05:45:50;2.37;;;1.00;;
72235;SDS011;60146;52.498;13.462;2023-12-28T05:48:15;2.07;;;0.90;;
72235;SDS011;60146;52.498;13.462;2023-12-28T05:50:40;3.40;;;1.27;;
72235;SDS011;60146;52.498;13.462;2023-12-28T05:53:06;2.00;;;1.10;;
72235;SDS011;60146;52.498;13.462;2023-12-28T05:55:31;3.67;;;1.10;;
72235;SDS011;60146;52.498;13.462;2023-12-28T05:57:56;1.97;;;1.10;;
72235;SDS011;60146;52.498;13.462;2023-12-28T06:00:22;2.07;;;1.00;;
72235;SDS011;60146;52.498;13.462;2023-12-28T06:02:47;2.10;;;1.10;;
72235;SDS011;60146;52.498;13.462;2023-12-28T06:05:16;1.57;;;1.00;;
72235;SDS011;60146;52.498;13.462;2023-12-28T06:07:42;2.00;;;1.00;;
72235;SDS011;60146;52.498;13.462;2023-12-28T06:10:07;1.77;;;0.97;;
72235;SDS011;60146;52.498;13.462;2023-12-28T06:12:33;2.07;;;1.00;;
72235;SDS011;60146;52.498;13.462;2023-12-28T06:14:58;1.53;;;0.90;;
72235;SDS011;60146;52.498;13.462;2023-12-28T06:17:24;2.00;;;1.10;;
72235;SDS011;60146;52.498;13.462;2023-12-28T06:19:50;1.57;;;0.83;;
72235;SDS011;60146;52.498;13.462;2023-12-28T06:22:15;1.67;;;0.90;;
72235;SDS011;60146;52.498;13.462;2023-12-28T06:24:40;2.20;;;1.13;;
72235;SDS011;60146;52.498;13.462;2023-12-28T06:27:06;4.93;;;1.23;;
72235;SDS011;60146;52.498;13.462;2023-12-28T06:29:31;1.50;;;0.90;;
72235;SDS011;60146;52.498;13.462;2023-12-28T06:31:57;1.50;;;1.10;;
72235;SDS011;60146;52.498;13.462;2023-12-28T06:34:22;1.70;;;0.83;;
72235;SDS011;60146;52.498;13.462;2023-12-28T06:36:47;1.80;;;0.90;;
72235;SDS011;60146;52.498;13.462;2023-12-28T06:39:13;1.23;;;0.90;;
72235;SDS011;60146;52.498;13.462;2023-12-28T06:41:38;1.57;;;0.90;;
72235;SDS011;60146;52.498;13.462;2023-12-28T06:44:03;1.80;;;0.80;;
72235;SDS011;60146;52.498;13.462;2023-12-28T06:46:29;1.83;;;1.20;;
72235;SDS011;60146;52.498;13.462;2023-12-28T06:48:54;1.40;;;0.90;;
72235;SDS011;60146;52.498;13.462;2023-12-28T06:51:20;2.53;;;0.90;;
72235;SDS011;60146;52.498;13.462;2023-12-28T06:53:46;1.90;;;1.00;;
72235;SDS011;60146;52.498;13.462;2023-12-28T06:56:13;3.57;;;1.20;;
72235;SDS011;60146;52.498;13.462;2023-12-28T06:58:39;1.83;;;1.00;;
72235;SDS011;60146;52.498;13.462;2023-12-28T07:01:04;2.13;;;1.10;;
72235;SDS011;60146;52.498;13.462;2023-12-28T07:03:30;1.97;;;0.90;;
72235;SDS011;60146;52.498;13.462;2023-12-28T07:05:57;1.93;;;1.10;;
72235;SDS011;60146;52.498;13.462;2023-12-28T07:08:23;2.93;;;1.10;;
72235;SDS011;60146;52.498;13.462;2023-12-28T07:10:49;2.20;;;1.10;;
72235;SDS011;60146;52.498;13.462;2023-12-28T07:13:14;2.43;;;1.17;;
72235;SDS011;60146;52.498;13.462;2023-12-28T07:15:39;2.50;;;1.20;;
72235;SDS011;60146;52.498;13.462;2023-12-28T07:18:04;2.77;;;1.30;;
72235;SDS011;60146;52.498;13.462;2023-12-28T07:20:30;2.20;;;1.00;;
72235;SDS011;60146;52.498;13.462;2023-12-28T07:22:55;2.60;;;0.90;;
72235;SDS011;60146;52.498;13.462;2023-12-28T07:25:20;3.37;;;1.20;;
72235;SDS011;60146;52.498;13.462;2023-12-28T07:27:46;3.57;;;1.10;;
72235;SDS011;60146;52.498;13.462;2023-12-28T07:30:11;2.67;;;1.00;;
72235;SDS011;60146;52.498;13.462;2023-12-28T07:32:37;2.37;;;1.47;;
72235;SDS011;60146;52.498;13.462;2023-12-28T07:35:02;2.17;;;1.30;;
72235;SDS011;60146;52.498;13.462;2023-12-28T07:37:29;4.40;;;1.10;;
72235;SDS011;60146;52.498;13.462;2023-12-28T07:39:54;2.40;;;1.23;;
72235;SDS011;60146;52.498;13.462;2023-12-28T07:42:20;1.40;;;1.23;;
72235;SDS011;60146;52.498;13.462;2023-12-28T07:44:48;1.40;;;0.87;;
72235;SDS011;60146;52.498;13.462;2023-12-28T07:47:13;3.37;;;1.30;;
72235;SDS011;60146;52.498;13.462;2023-12-28T07:49:40;3.57;;;1.00;;
72235;SDS011;60146;52.498;13.462;2023-12-28T07:52:05;1.50;;;1.10;;
72235;SDS011;60146;52.498;13.462;2023-12-28T07:54:30;1.83;;;1.10;;
72235;SDS011;60146;52.498;13.462;2023-12-28T07:56:56;3.00;;;1.20;;
72235;SDS011;60146;52.498;13.462;2023-12-28T07:59:21;2.23;;;1.20;;
72235;SDS011;60146;52.498;13.462;2023-12-28T08:01:46;3.10;;;1.40;;
72235;SDS011;60146;52.498;13.462;2023-12-28T08:04:12;1.47;;;1.03;;
72235;SDS011;60146;52.498;13.462;2023-12-28T08:06:37;1.50;;;0.80;;
72235;SDS011;60146;52.498;13.462;2023-12-28T08:09:02;2.60;;;1.30;;
72235;SDS011;60146;52.498;13.462;2023-12-28T08:11:28;1.80;;;1.10;;
72235;SDS011;60146;52.498;13.462;2023-12-28T08:13:53;3.67;;;1.30;;
72235;SDS011;60146;52.498;13.462;2023-12-28T08:16:19;2.80;;;1.20;;
72235;SDS011;60146;52.498;13.462;2023-12-28T08:18:44;3.97;;;1.50;;
72235;SDS011;60146;52.498;13.462;2023-12-28T08:21:09;1.93;;;1.07;;
72235;SDS011;60146;52.498;13.462;2023-12-28T08:23:35;2.30;;;1.20;;
72235;SDS011;60146;52.498;13.462;2023-12-28T08:26:00;2.73;;;1.30;;
72235;SDS011;60146;52.498;13.462;2023-12-28T08:28:25;2.03;;;1.17;;
72235;SDS011;60146;52.498;13.462;2023-12-28T08:30:51;4.20;;;1.93;;
72235;SDS011;60146;52.498;13.462;2023-12-28T08:33:16;3.47;;;1.20;;
72235;SDS011;60146;52.498;13.462;2023-12-28T08:35:42;1.53;;;1.10;;
72235;SDS011;60146;52.498;13.462;2023-12-28T08:38:07;2.47;;;1.27;;
72235;SDS011;60146;52.498;13.462;2023-12-28T08:40:33;2.23;;;1.57;;
72235;SDS011;60146;52.498;13.462;2023-12-28T08:42:58;3.03;;;1.60;;
72235;SDS011;60146;52.498;13.462;2023-12-28T08:45:24;2.37;;;1.40;;
72235;SDS011;60146;52.498;13.462;2023-12-28T08:47:49;3.63;;;1.40;;
72235;SDS011;60146;52.498;13.462;2023-12-28T08:50:14;2.33;;;1.33;;
72235;SDS011;60146;52.498;13.462;2023-12-28T08:52:40;3.10;;;1.27;;
72235;SDS011;60146;52.498;13.462;2023-12-28T08:55:05;2.37;;;1.30;;
72235;SDS011;60146;52.498;13.462;2023-12-28T08:57:31;3.37;;;1.30;;
72235;SDS011;60146;52.498;13.462;2023-12-28T08:59:56;3.70;;;1.37;;
72235;SDS011;60146;52.498;13.462;2023-12-28T09:02:22;2.57;;;1.50;;
72235;SDS011;60146;52.498;13.462;2023-12-28T09:04:48;1.90;;;1.10;;
72235;SDS011;60146;52.498;13.462;2023-12-28T09:07:13;2.10;;;1.20;;
72235;SDS011;60146;52.498;13.462;2023-12-28T09:09:38;2.60;;;1.30;;
72235;SDS011;60146;52.498;13.462;2023-12-28T09:12:04;1.67;;;1.30;;
72235;SDS011;60146;52.498;13.462;2023-12-28T09:14:30;4.00;;;1.50;;
72235;SDS011;60146;52.498;13.462;2023-12-28T09:16:55;2.57;;;1.60;;
72235;SDS011;60146;52.498;13.462;2023-12-28T09:19:21;3.17;;;1.77;;
72235;SDS011;60146;52.498;13.462;2023-12-28T09:21:46;3.10;;;1.50;;
72235;SDS011;60146;52.498;13.462;2023-12-28T09:24:12;2.70;;;1.43;;
72235;SDS011;60146;52.498;13.462;2023-12-28T09:26:37;2.50;;;1.23;;
72235;SDS011;60146;52.498;13.462;2023-12-28T09:29:02;4.10;;;1.70;;
72235;SDS011;60146;52.498;13.462;2023-12-28T09:31:27;3.23;;;1.53;;
72235;SDS011;60146;52.498;13.462;2023-12-28T09:33:53;2.93;;;1.57;;
72235;SDS011;60146;52.498;13.462;2023-12-28T09:36:18;3.43;;;1.30;;
72235;SDS011;60146;52.498;13.462;2023-12-28T09:38:43;2.73;;;1.47;;
72235;SDS011;60146;52.498;13.462;2023-12-28T09:41:11;3.80;;;1.20;;
72235;SDS011;60146;52.498;13.462;2023-12-28T09:43:54;3.20;;;1.60;;
72235;SDS011;60146;52.498;13.462;2023-12-28T09:46:21;2.10;;;1.38;;
72235;SDS011;60146;52.498;13.462;2023-12-28T09:48:46;3.23;;;1.53;;
72235;SDS011;60146;52.498;13.462;2023-12-28T09:51:12;3.20;;;1.37;;
72235;SDS011;60146;52.498;13.462;2023-12-28T09:53:38;3.63;;;1.80;;
72235;SDS011;60146;52.498;13.462;2023-12-28T09:56:03;2.73;;;1.60;;
72235;SDS011;60146;52.498;13.462;2023-12-28T09:58:30;2.87;;;1.50;;
72235;SDS011;60146;52.498;13.462;2023-12-28T10:00:57;3.47;;;1.53;;
72235;SDS011;60146;52.498;13.462;2023-12-28T10:03:24;2.57;;;1.53;;
72235;SDS011;60146;52.498;13.462;2023-12-28T10:05:49;3.10;;;1.73;;
72235;SDS011;60146;52.498;13.462;2023-12-28T10:08:15;4.87;;;1.67;;
72235;SDS011;60146;52.498;13.462;2023-12-28T10:10:41;2.83;;;1.40;;
72235;SDS011;60146;52.498;13.462;2023-12-28T10:13:07;4.70;;;1.70;;
72235;SDS011;60146;52.498;13.462;2023-12-28T10:15:34;4.27;;;1.67;;
72235;SDS011;60146;52.498;13.462;2023-12-28T10:18:00;3.60;;;1.80;;
72235;SDS011;60146;52.498;13.462;2023-12-28T10:20:26;2.43;;;1.30;;
72235;SDS011;60146;52.498;13.462;2023-12-28T10:22:52;2.40;;;1.60;;
72235;SDS011;60146;52.498;13.462;2023-12-28T10:25:18;2.40;;;1.10;;
72235;SDS011;60146;52.498;13.462;2023-12-28T10:27:43;3.00;;;1.67;;
72235;SDS011;60146;52.498;13.462;2023-12-28T10:30:09;5.37;;;1.43;;
72235;SDS011;60146;52.498;13.462;2023-12-28T10:32:39;2.43;;;1.40;;
72235;SDS011;60146;52.498;13.462;2023-12-28T10:35:05;1.97;;;1.17;;
72235;SDS011;60146;52.498;13.462;2023-12-28T10:37:31;3.83;;;1.47;;
72235;SDS011;60146;52.498;13.462;2023-12-28T10:39:57;2.57;;;1.50;;
72235;SDS011;60146;52.498;13.462;2023-12-28T10:42:36;5.23;;;1.57;;
72235;SDS011;60146;52.498;13.462;2023-12-28T10:45:09;4.37;;;1.70;;
72235;SDS011;60146;52.498;13.462;2023-12-28T10:47:37;3.80;;;1.50;;
72235;SDS011;60146;52.498;13.462;2023-12-28T10:50:04;4.83;;;1.63;;
72235;SDS011;60146;52.498;13.462;2023-12-28T10:52:31;3.60;;;1.30;;
72235;SDS011;60146;52.498;13.462;2023-12-28T10:55:05;2.50;;;1.40;;
72235;SDS011;60146;52.498;13.462;2023-12-28T11:00:25;4.00;;;1.67;;
72235;SDS011;60146;52.498;13.462;2023-12-28T11:02:56;4.63;;;1.83;;
72235;SDS011;60146;52.498;13.462;2023-12-28T11:05:27;3.27;;;1.63;;
72235;SDS011;60146;52.498;13.462;2023-12-28T11:07:55;2.63;;;1.50;;
72235;SDS011;60146;52.498;13.462;2023-12-28T11:10:23;3.23;;;1.60;;
72235;SDS011;60146;52.498;13.462;2023-12-28T11:12:52;5.00;;;1.80;;
72235;SDS011;60146;52.498;13.462;2023-12-28T11:15:18;3.07;;;1.67;;
72235;SDS011;60146;52.498;13.462;2023-12-28T11:17:44;5.90;;;1.83;;
72235;SDS011;60146;52.498;13.462;2023-12-28T11:20:09;2.00;;;1.40;;
72235;SDS011;60146;52.498;13.462;2023-12-28T11:22:36;4.73;;;1.70;;
72235;SDS011;60146;52.498;13.462;2023-12-28T11:25:03;3.50;;;1.70;;
72235;SDS011;60146;52.498;13.462;2023-12-28T11:27:33;2.63;;;1.43;;
72235;SDS011;60146;52.498;13.462;2023-12-28T11:30:12;4.18;;;1.73;;
72235;SDS011;60146;52.498;13.462;2023-12-28T11:32:38;4.00;;;1.63;;
72235;SDS011;60146;52.498;13.462;2023-12-28T11:35:08;4.47;;;1.77;;
72235;SDS011;60146;52.498;13.462;2023-12-28T11:37:35;3.47;;;1.70;;
72235;SDS011;60146;52.498;13.462;2023-12-28T11:40:10;1.53;;;1.30;;
72235;SDS011;60146;52.498;13.462;2023-12-28T11:42:48;4.63;;;1.73;;
72235;SDS011;60146;52.498;13.462;2023-12-28T11:45:16;3.17;;;1.50;;
72235;SDS011;60146;52.498;13.462;2023-12-28T11:47:42;4.47;;;1.50;;
72235;SDS011;60146;52.498;13.462;2023-12-28T11:50:08;3.97;;;1.70;;
72235;SDS011;60146;52.498;13.462;2023-12-28T11:52:33;5.53;;;1.60;;
72235;SDS011;60146;52.498;13.462;2023-12-28T11:54:59;3.07;;;1.57;;
72235;SDS011;60146;52.498;13.462;2023-12-28T11:57:25;2.70;;;1.60;;
72235;SDS011;60146;52.498;13.462;2023-12-28T11:59:57;3.27;;;1.37;;
72235;SDS011;60146;52.498;13.462;2023-12-28T12:02:24;5.17;;;1.43;;
72235;SDS011;60146;52.498;13.462;2023-12-28T12:04:50;3.47;;;1.60;;
72235;SDS011;60146;52.498;13.462;2023-12-28T12:07:15;5.50;;;1.30;;
72235;SDS011;60146;52.498;13.462;2023-12-28T12:09:41;2.80;;;1.40;;
72235;SDS011;60146;52.498;13.462;2023-12-28T12:12:07;3.63;;;1.53;;
72235;SDS011;60146;52.498;13.462;2023-12-28T12:14:32;4.07;;;1.30;;
72235;SDS011;60146;52.498;13.462;2023-12-28T12:16:59;1.57;;;1.20;;
72235;SDS011;60146;52.498;13.462;2023-12-28T12:19:25;2.50;;;1.30;;
72235;SDS011;60146;52.498;13.462;2023-12-28T12:21:54;2.77;;;1.30;;
72235;SDS011;60146;52.498;13.462;2023-12-28T12:24:20;3.75;;;1.33;;
72235;SDS011;60146;52.498;13.462;2023-12-28T12:26:46;3.47;;;1.40;;
72235;SDS011;60146;52.498;13.462;2023-12-28T12:29:12;2.50;;;1.40;;
72235;SDS011;60146;52.498;13.462;2023-12-28T12:31:41;3.17;;;1.40;;
72235;SDS011;60146;52.498;13.462;2023-12-28T12:34:08;5.80;;;1.37;;
72235;SDS011;60146;52.498;13.462;2023-12-28T12:36:35;4.27;;;1.87;;
72235;SDS011;60146;52.498;13.462;2023-12-28T12:39:00;2.60;;;1.30;;
72235;SDS011;60146;52.498;13.462;2023-12-28T12:41:26;2.73;;;1.40;;
72235;SDS011;60146;52.498;13.462;2023-12-28T12:43:52;3.50;;;1.40;;
72235;SDS011;60146;52.498;13.462;2023-12-28T12:46:20;2.70;;;1.30;;
72235;SDS011;60146;52.498;13.462;2023-12-28T12:49:07;2.33;;;1.33;;
72235;SDS011;60146;52.498;13.462;2023-12-28T12:51:32;3.60;;;1.30;;
72235;SDS011;60146;52.498;13.462;2023-12-28T12:53:57;3.30;;;1.17;;
72235;SDS011;60146;52.498;13.462;2023-12-28T12:56:24;2.90;;;1.30;;
72235;SDS011;60146;52.498;13.462;2023-12-28T12:58:50;2.00;;;1.30;;
72235;SDS011;60146;52.498;13.462;2023-12-28T13:01:16;2.60;;;1.30;;
72235;SDS011;60146;52.498;13.462;2023-12-28T13:03:41;3.60;;;1.27;;
72235;SDS011;60146;52.498;13.462;2023-12-28T13:06:06;5.77;;;1.60;;
72235;SDS011;60146;52.498;13.462;2023-12-28T13:08:32;1.97;;;1.33;;
72235;SDS011;60146;52.498;13.462;2023-12-28T13:10:58;4.83;;;1.50;;
72235;SDS011;60146;52.498;13.462;2023-12-28T13:13:23;2.73;;;1.37;;
72235;SDS011;60146;52.498;13.462;2023-12-28T13:15:48;4.00;;;1.57;;
72235;SDS011;60146;52.498;13.462;2023-12-28T13:18:13;2.90;;;1.40;;
72235;SDS011;60146;52.498;13.462;2023-12-28T13:20:39;3.13;;;1.30;;
72235;SDS011;60146;52.498;13.462;2023-12-28T13:23:04;3.60;;;1.20;;
72235;SDS011;60146;52.498;13.462;2023-12-28T13:25:30;3.53;;;1.35;;
72235;SDS011;60146;52.498;13.462;2023-12-28T13:27:55;2.10;;;1.30;;
72235;SDS011;60146;52.498;13.462;2023-12-28T13:30:20;2.97;;;1.40;;
72235;SDS011;60146;52.498;13.462;2023-12-28T13:32:46;3.00;;;1.27;;
72235;SDS011;60146;52.498;13.462;2023-12-28T13:35:12;2.47;;;1.30;;
72235;SDS011;60146;52.498;13.462;2023-12-28T13:37:37;2.30;;;1.33;;
72235;SDS011;60146;52.498;13.462;2023-12-28T13:40:02;3.90;;;1.40;;
72235;SDS011;60146;52.498;13.462;2023-12-28T13:42:29;2.83;;;1.40;;
72235;SDS011;60146;52.498;13.462;2023-12-28T13:44:55;3.27;;;1.20;;
72235;SDS011;60146;52.498;13.462;2023-12-28T13:47:20;2.77;;;1.40;;
72235;SDS011;60146;52.498;13.462;2023-12-28T13:49:45;3.27;;;1.70;;
72235;SDS011;60146;52.498;13.462;2023-12-28T13:52:12;4.07;;;1.40;;
72235;SDS011;60146;52.498;13.462;2023-12-28T13:54:37;3.27;;;1.70;;
72235;SDS011;60146;52.498;13.462;2023-12-28T13:57:03;3.37;;;1.47;;
72235;SDS011;60146;52.498;13.462;2023-12-28T13:59:28;3.33;;;1.50;;
72235;SDS011;60146;52.498;13.462;2023-12-28T14:01:54;2.73;;;1.50;;
72235;SDS011;60146;52.498;13.462;2023-12-28T14:04:19;4.80;;;1.27;;
72235;SDS011;60146;52.498;13.462;2023-12-28T14:06:44;4.10;;;1.30;;
72235;SDS011;60146;52.498;13.462;2023-12-28T14:09:10;2.77;;;1.30;;
72235;SDS011;60146;52.498;13.462;2023-12-28T14:11:35;3.27;;;1.20;;
72235;SDS011;60146;52.498;13.462;2023-12-28T14:14:00;2.17;;;1.50;;
72235;SDS011;60146;52.498;13.462;2023-12-28T14:16:26;2.90;;;1.33;;
72235;SDS011;60146;52.498;13.462;2023-12-28T14:18:51;4.17;;;1.20;;
72235;SDS011;60146;52.498;13.462;2023-12-28T14:21:17;2.73;;;1.50;;
72235;SDS011;60146;52.498;13.462;2023-12-28T14:23:43;4.23;;;1.50;;
72235;SDS011;60146;52.498;13.462;2023-12-28T14:26:11;2.10;;;1.33;;
72235;SDS011;60146;52.498;13.462;2023-12-28T14:28:43;7.60;;;2.50;;